Skip Navigation Linkwww.weather.gov 
NOAA logo - Select to go to the NOAA homepage National Weather Service
 Headquarters Office   NWS logo
NWS Office of the Chief Information Officer/Telecommunication Operations Center
 
   

Current Weather Conditions:
Iringa, Tanzania

(HTIR) 07-40S 035-45E 1428M

Conditions at

2017.12.13 1400 UTC
Wind from the E (100 degrees) at 14 MPH (12 KT)
Visibility greater than 7 mile(s)
Sky conditions mostly cloudy
Weather Cumulonimbus clouds observed
Temperature 80 F (27 C)
Dew Point 59 F (15 C)
Relative Humidity 47%
Pressure (altimeter) 30.03 in. Hg (1017 hPa)
ob HTIR 131400Z 10012KT 9999 BKN023 FEW025CB 27/15 Q1017 HTKA 131400Z 08010KT 9999 FEW023 FEW024CB BKN240 24/21 Q1015

24 Hour Summary

Time
EST (UTC)
Temperature
F (C)
Dew Point
F (C)
Pressure
Inches (hPa)
Wind
MPH
Weather
Latest 9 AM (14) Dec 13 80 (27) 59 (15) 30.03 (1017) E 14
8 AM (13) Dec 13 82 (28) 55 (13) 30.06 (1018) E 9
7 AM (12) Dec 13 84 (29) 55 (13) 30.06 (1018) E 6
6 AM (11) Dec 13 84 (29) 53 (12) 30.09 (1019) E 6
5 AM (10) Dec 13 84 (29) 53 (12) 30.12 (1020) ENE 7
4 AM (9) Dec 13 82 (28) 55 (13) 30.15 (1021) E 10
3 AM (8) Dec 13 80 (27) 55 (13) 30.18 (1022) NNE 7
2 AM (7) Dec 13 77 (25) 59 (15) 30.18 (1022) E 7
1 AM (6) Dec 13 73 (23) 60 (16) 30.18 (1022) Calm
Midnight (5) Dec 13 68 (20) 60 (16) 30.18 (1022) Calm
11 PM (4) Dec 12 62 (17) 59 (15) 30.15 (1021) Calm
10 PM (3) Dec 12 62 (17) 59 (15) 30.12 (1020) Calm
9 PM (2) Dec 12 62 (17) 59 (15) 30.12 (1020) Calm
8 PM (1) Dec 12 64 (18) 59 (15) 30.09 (1019) Calm
7 PM (0) Dec 12 66 (19) 59 (15) 30.09 (1019) Calm
6 PM (23) Dec 12 66 (19) 59 (15) 30.09 (1019) Calm
5 PM (22) Dec 12 66 (19) 60 (16) 30.12 (1020) Calm
4 PM (21) Dec 12 68 (20) 60 (16) 30.12 (1020) Calm
3 PM (20) Dec 12 69 (21) 60 (16) 30.15 (1021) Calm
2 PM (19) Dec 12 69 (21) 60 (16) 30.12 (1020) Calm
1 PM (18) Dec 12 71 (22) 60 (16) 30.12 (1020) Calm
Noon (17) Dec 12 73 (23) 62 (17) 30.09 (1019) Calm
11 AM (16) Dec 12 77 (25) 59 (15) 30.09 (1019) ESE 8
Oldest 10 AM (15) Dec 12 80 (27) 64 (18) 30.06 (1018) SE 6
Time
EST (UTC)
Temperature
F(C)
Dew Point
F(C)
Pressure
Inches(hPa)
Wind
(MPH)
Weather

The information presented here is taken from products produced by the U.S. National Weather Service and other national and international agencies




US Dept of Commerce
National Oceanic and Atmospheric Administration
National Weather Service
1325 East West Highway
Silver Spring, MD 20910
Page Author: NWS Internet Services Team
Disclaimer
Feedback
Privacy Notice
Credits